createdAt,value
2023-04-29T00:02:20.649Z,9.37
2023-04-29T00:04:48.102Z,9.13
2023-04-29T00:07:15.336Z,10.37
2023-04-29T00:09:43.764Z,10.27
2023-04-29T00:12:10.880Z,9.90
2023-04-29T00:14:37.989Z,13.03
2023-04-29T00:17:05.469Z,12.70
2023-04-29T00:19:32.735Z,13.33
2023-04-29T00:21:59.868Z,13.10
2023-04-29T00:24:26.931Z,16.50
2023-04-29T00:26:55.388Z,16.50
2023-04-29T00:29:22.437Z,20.43
2023-04-29T00:31:49.608Z,23.00
2023-04-29T00:34:16.761Z,26.40
2023-04-29T00:36:43.909Z,24.80
2023-04-29T00:39:13.272Z,25.43
2023-04-29T00:41:42.395Z,24.70
2023-04-29T00:44:11.690Z,29.73
2023-04-29T00:46:38.981Z,31.53
2023-04-29T00:49:07.195Z,33.27
2023-04-29T00:51:34.735Z,34.80
2023-04-29T00:54:01.935Z,34.60
2023-04-29T00:56:30.370Z,34.37
2023-04-29T00:58:58.953Z,37.27
2023-04-29T01:01:27.686Z,38.20
2023-04-29T01:03:55.388Z,38.43
2023-04-29T01:06:27.328Z,37.40
2023-04-29T01:08:58.817Z,35.80
2023-04-29T01:11:29.572Z,42.80
2023-04-29T01:13:59.462Z,38.30
2023-04-29T01:16:31.526Z,40.73
2023-04-29T01:19:05.631Z,40.43
2023-04-29T01:21:46.111Z,38.83
2023-04-29T01:24:14.680Z,37.57
2023-04-29T01:26:43.695Z,42.50
2023-04-29T01:29:23.447Z,35.97
2023-04-29T01:31:54.422Z,40.40
2023-04-29T01:34:27.945Z,40.73
2023-04-29T01:37:00.923Z,39.07
2023-04-29T01:39:33.908Z,41.23
2023-04-29T01:42:15.573Z,40.20
2023-04-29T01:44:43.510Z,39.73
2023-04-29T01:47:13.932Z,43.07
2023-04-29T01:49:45.202Z,43.33
2023-04-29T01:52:12.345Z,42.37
2023-04-29T01:54:42.698Z,42.37
2023-04-29T01:57:09.901Z,41.60
2023-04-29T02:00:07.016Z,42.23
2023-04-29T02:02:48.992Z,45.73
2023-04-29T02:05:25.016Z,43.67
2023-04-29T02:07:57.454Z,39.87
2023-04-29T02:10:26.048Z,41.80
2023-04-29T02:13:01.727Z,42.70
2023-04-29T02:15:29.751Z,45.37
2023-04-29T02:17:56.999Z,43.63
2023-04-29T02:20:24.111Z,44.80
2023-04-29T02:22:51.239Z,38.47
2023-04-29T02:25:18.322Z,36.00
2023-04-29T02:27:46.700Z,39.00
2023-04-29T02:30:13.817Z,41.60
2023-04-29T02:32:41.592Z,36.43
2023-04-29T02:35:09.129Z,39.83
2023-04-29T02:37:36.227Z,42.27
2023-04-29T02:40:03.421Z,35.93
2023-04-29T02:42:31.291Z,33.87
2023-04-29T02:44:59.739Z,34.73
2023-04-29T02:47:26.874Z,34.40
2023-04-29T02:49:54.165Z,37.13
2023-04-29T02:52:21.472Z,34.23
2023-04-29T02:54:49.007Z,35.50
2023-04-29T02:57:16.081Z,35.40
2023-04-29T02:59:43.298Z,31.67
2023-04-29T03:02:11.770Z,28.53
2023-04-29T03:04:39.236Z,31.70
2023-04-29T03:07:06.386Z,32.67
2023-04-29T03:09:33.446Z,27.93
2023-04-29T03:12:00.580Z,31.80
2023-04-29T03:14:27.648Z,32.20
2023-04-29T03:16:54.803Z,30.30
2023-04-29T03:19:23.374Z,31.17
2023-04-29T03:21:53.334Z,34.53
2023-04-29T03:24:21.310Z,33.47
2023-04-29T03:26:48.376Z,34.70
2023-04-29T03:29:15.450Z,33.37
2023-04-29T03:31:42.695Z,33.30
2023-04-29T03:34:10.073Z,34.30
2023-04-29T03:36:42.123Z,34.30
2023-04-29T03:39:09.368Z,32.43
2023-04-29T03:41:36.582Z,35.20
2023-04-29T03:44:03.766Z,37.00
2023-04-29T03:46:31.001Z,35.33
2023-04-29T03:48:58.378Z,32.73
2023-04-29T03:51:26.058Z,38.33
2023-04-29T03:54:01.183Z,39.03
2023-04-29T03:56:28.425Z,36.87
2023-04-29T03:58:55.595Z,32.43
2023-04-29T04:01:25.260Z,33.20
2023-04-29T04:03:52.965Z,33.40
2023-04-29T04:06:20.166Z,34.10
2023-04-29T04:08:47.565Z,32.47
2023-04-29T04:11:22.629Z,30.97
2023-04-29T04:13:55.904Z,33.83
2023-04-29T04:16:24.627Z,33.50
2023-04-29T04:18:52.470Z,33.17
2023-04-29T04:21:19.675Z,26.60
2023-04-29T04:23:54.731Z,32.17
2023-04-29T04:26:25.143Z,32.83
2023-04-29T04:29:13.810Z,29.60
2023-04-29T04:31:54.038Z,32.67
2023-04-29T04:34:22.097Z,28.10
2023-04-29T04:36:51.599Z,33.93
2023-04-29T04:39:18.866Z,32.97
2023-04-29T04:41:47.680Z,32.50
2023-04-29T04:44:15.013Z,30.20
2023-04-29T04:46:51.605Z,27.73
2023-04-29T04:49:32.353Z,27.87
2023-04-29T04:51:59.680Z,24.00
2023-04-29T04:54:26.824Z,23.57
2023-04-29T04:57:05.150Z,23.90
2023-04-29T04:59:32.251Z,23.00
2023-04-29T05:01:59.461Z,22.87
2023-04-29T05:04:26.688Z,24.77
2023-04-29T05:06:54.071Z,24.53
2023-04-29T05:09:22.825Z,24.63
2023-04-29T05:11:49.933Z,25.53
2023-04-29T05:14:19.498Z,23.23
2023-04-29T05:16:46.702Z,22.40
2023-04-29T05:19:13.893Z,24.80
2023-04-29T05:21:41.414Z,22.43
2023-04-29T05:24:10.608Z,22.27
2023-04-29T05:26:38.231Z,22.17
2023-04-29T05:29:06.669Z,21.83
2023-04-29T05:31:43.814Z,20.60
2023-04-29T05:34:10.904Z,20.20
2023-04-29T05:36:37.994Z,20.53
2023-04-29T05:39:05.534Z,20.80
2023-04-29T05:41:32.651Z,19.30
2023-04-29T05:43:59.840Z,22.70
2023-04-29T05:46:27.052Z,19.37
2023-04-29T05:48:55.751Z,20.57
2023-04-29T05:51:23.033Z,20.33
2023-04-29T05:53:50.221Z,22.80
2023-04-29T05:56:18.619Z,22.20
2023-04-29T05:58:45.698Z,20.57
2023-04-29T06:01:12.946Z,19.33
2023-04-29T06:03:40.204Z,20.77
2023-04-29T06:06:27.712Z,19.97
2023-04-29T06:09:05.204Z,19.67
2023-04-29T06:11:35.712Z,19.93
2023-04-29T06:14:02.795Z,20.30
2023-04-29T06:16:29.993Z,19.17
2023-04-29T06:18:57.120Z,20.23
2023-04-29T06:21:24.201Z,19.77
2023-04-29T06:23:52.647Z,20.00
2023-04-29T06:26:21.396Z,19.10
2023-04-29T06:28:48.572Z,20.03
2023-04-29T06:31:16.194Z,20.37
2023-04-29T06:33:43.499Z,21.97
2023-04-29T06:36:10.878Z,21.03
2023-04-29T06:38:58.901Z,22.70
2023-04-29T06:41:52.067Z,22.63
2023-04-29T06:44:37.751Z,22.63
2023-04-29T06:47:21.026Z,22.40
2023-04-29T06:50:08.625Z,22.63
2023-04-29T06:52:35.671Z,22.03
2023-04-29T06:55:05.516Z,20.53
2023-04-29T06:57:32.615Z,20.97
2023-04-29T06:59:59.722Z,21.60
2023-04-29T07:02:26.892Z,19.70
2023-04-29T07:04:54.106Z,19.17
2023-04-29T07:07:21.240Z,17.63
2023-04-29T07:09:48.365Z,18.53
2023-04-29T07:12:16.878Z,17.47
2023-04-29T07:14:43.951Z,16.20
2023-04-29T07:17:12.748Z,19.20
2023-04-29T07:19:41.835Z,18.33
2023-04-29T07:22:08.869Z,15.00
2023-04-29T07:24:36.384Z,16.13
2023-04-29T07:27:03.804Z,16.37
2023-04-29T07:29:32.227Z,16.30
2023-04-29T07:31:59.329Z,14.43
2023-04-29T07:34:27.478Z,15.90
2023-04-29T07:36:54.582Z,16.03
2023-04-29T07:39:21.695Z,16.13
2023-04-29T07:41:52.925Z,14.27
2023-04-29T07:44:19.987Z,15.93
2023-04-29T07:46:48.616Z,15.30
2023-04-29T07:49:15.702Z,16.20
2023-04-29T07:51:42.879Z,17.10
2023-04-29T07:54:11.180Z,15.83
2023-04-29T07:56:38.225Z,15.20
2023-04-29T07:59:07.745Z,16.10
2023-04-29T08:01:34.955Z,17.63
2023-04-29T08:04:03.624Z,16.27
2023-04-29T08:06:34.561Z,16.50
2023-04-29T08:09:03.308Z,17.07
2023-04-29T08:11:30.462Z,17.43
2023-04-29T08:13:57.543Z,19.33
2023-04-29T08:16:24.626Z,18.50
2023-04-29T08:18:51.837Z,20.50
2023-04-29T08:21:20.259Z,19.30
2023-04-29T08:23:47.345Z,19.70
2023-04-29T08:26:14.581Z,18.87
2023-04-29T08:28:41.971Z,19.17
2023-04-29T08:31:09.050Z,18.63
2023-04-29T08:33:36.184Z,21.23
2023-04-29T08:36:03.767Z,19.90
2023-04-29T08:38:32.500Z,20.50
2023-04-29T08:40:59.558Z,20.97
2023-04-29T08:43:27.351Z,18.77
2023-04-29T08:45:54.726Z,18.43
2023-04-29T08:48:21.905Z,21.67
2023-04-29T08:50:49.133Z,22.77
2023-04-29T08:53:16.195Z,24.50
2023-04-29T08:55:45.663Z,24.70
2023-04-29T08:58:13.279Z,23.20
2023-04-29T09:00:40.564Z,24.87
2023-04-29T09:03:15.361Z,23.50
2023-04-29T09:05:43.670Z,24.80
2023-04-29T09:08:12.302Z,27.20
2023-04-29T09:10:40.001Z,26.90
2023-04-29T09:13:08.403Z,29.90
2023-04-29T09:15:36.588Z,32.50
2023-04-29T09:18:03.784Z,31.67
2023-04-29T09:20:30.943Z,33.30
2023-04-29T09:22:59.383Z,32.03
2023-04-29T09:25:26.531Z,35.20
2023-04-29T09:27:53.747Z,34.97
2023-04-29T09:30:22.267Z,33.17
2023-04-29T09:33:04.670Z,41.67
2023-04-29T09:35:31.881Z,36.43
2023-04-29T09:38:08.932Z,42.50
2023-04-29T09:40:46.650Z,42.57
2023-04-29T09:43:18.995Z,41.47
2023-04-29T09:45:48.146Z,35.83
2023-04-29T09:48:16.452Z,37.87
2023-04-29T09:50:44.258Z,36.40
2023-04-29T09:53:12.003Z,42.77
2023-04-29T09:55:58.502Z,38.37
2023-04-29T09:58:28.883Z,37.97
2023-04-29T10:00:58.281Z,37.67
2023-04-29T10:03:25.589Z,45.80
2023-04-29T10:05:52.715Z,43.70
2023-04-29T10:08:19.919Z,45.33
2023-04-29T10:10:46.995Z,42.70
2023-04-29T10:13:14.123Z,43.37
2023-04-29T10:15:44.579Z,42.20
2023-04-29T10:18:15.090Z,43.70
2023-04-29T10:20:45.814Z,40.90
2023-04-29T10:23:13.760Z,38.53
2023-04-29T10:25:42.213Z,41.50
2023-04-29T10:28:10.186Z,39.23
2023-04-29T10:30:37.798Z,37.97
2023-04-29T10:33:05.561Z,38.37
2023-04-29T10:35:34.276Z,39.87
2023-04-29T10:38:02.217Z,36.27
2023-04-29T10:40:31.783Z,36.00
2023-04-29T10:42:59.952Z,31.70
2023-04-29T10:45:28.145Z,30.77
2023-04-29T10:48:11.361Z,27.00
2023-04-29T10:51:00.647Z,29.00
2023-04-29T10:53:27.857Z,23.70
2023-04-29T10:55:56.975Z,25.53
2023-04-29T10:58:43.510Z,24.97
2023-04-29T11:01:11.575Z,26.83
2023-04-29T11:03:52.138Z,25.30
2023-04-29T11:06:20.824Z,23.73
2023-04-29T11:08:47.917Z,23.90
2023-04-29T11:11:15.120Z,24.20
2023-04-29T11:13:46.505Z,24.93
2023-04-29T11:16:13.641Z,25.37
2023-04-29T11:18:55.668Z,26.20
2023-04-29T11:21:24.179Z,23.70
2023-04-29T11:23:52.338Z,24.27
2023-04-29T11:26:19.968Z,23.83
2023-04-29T11:28:48.114Z,24.17
2023-04-29T11:31:15.305Z,25.30
2023-04-29T11:33:42.371Z,24.00
2023-04-29T11:36:10.128Z,25.23
2023-04-29T11:38:40.251Z,26.77
2023-04-29T11:41:07.441Z,25.83
2023-04-29T11:43:34.512Z,25.43
2023-04-29T11:46:01.888Z,23.87
2023-04-29T11:48:29.034Z,22.53
2023-04-29T11:50:58.189Z,25.60
2023-04-29T11:53:25.960Z,24.33
2023-04-29T11:55:54.796Z,23.77
2023-04-29T11:58:22.064Z,23.47
2023-04-29T12:00:49.345Z,24.03
2023-04-29T12:03:17.319Z,24.03
2023-04-29T12:05:47.064Z,25.77
2023-04-29T12:08:14.204Z,23.23
2023-04-29T12:10:41.581Z,25.13
2023-04-29T12:13:10.437Z,26.07
2023-04-29T12:15:40.090Z,25.30
2023-04-29T12:18:07.689Z,24.80
2023-04-29T12:20:34.952Z,22.83
2023-04-29T12:23:11.922Z,22.93
2023-04-29T12:25:38.967Z,24.03
2023-04-29T12:28:07.895Z,25.20
2023-04-29T12:30:38.155Z,23.87
2023-04-29T12:33:05.250Z,24.60
2023-04-29T12:35:32.394Z,25.23
2023-04-29T12:37:59.463Z,24.40
2023-04-29T12:40:27.860Z,23.83
2023-04-29T12:42:56.615Z,24.67
2023-04-29T12:45:27.367Z,23.80
2023-04-29T12:47:56.988Z,23.80
2023-04-29T12:50:29.372Z,22.50
2023-04-29T12:52:56.437Z,23.80
2023-04-29T12:55:23.508Z,22.33
2023-04-29T12:57:50.623Z,22.43
2023-04-29T13:00:17.875Z,21.20
2023-04-29T13:02:45.026Z,20.90
2023-04-29T13:05:13.630Z,23.77
2023-04-29T13:07:40.734Z,21.23
2023-04-29T13:10:08.332Z,22.00
2023-04-29T13:12:35.496Z,21.30
2023-04-29T13:15:02.567Z,18.83
2023-04-29T13:17:29.649Z,17.60
2023-04-29T13:19:56.750Z,18.57
2023-04-29T13:22:25.194Z,18.97
2023-04-29T13:24:52.486Z,18.70
2023-04-29T13:27:19.631Z,18.53
2023-04-29T13:29:46.655Z,18.13
2023-04-29T13:32:13.802Z,19.80
2023-04-29T13:34:41.019Z,20.13
2023-04-29T13:37:08.121Z,18.93
2023-04-29T13:39:38.418Z,20.83
2023-04-29T13:42:05.616Z,19.33
2023-04-29T13:44:39.710Z,16.53
2023-04-29T13:47:19.932Z,19.17
2023-04-29T13:59:53.332Z,15.90
2023-04-29T14:02:25.447Z,17.90
2023-04-29T14:04:54.001Z,16.80
2023-04-29T14:07:21.593Z,17.10
2023-04-29T14:09:48.670Z,17.73
2023-04-29T14:12:17.080Z,17.27
2023-04-29T14:14:44.138Z,17.10
2023-04-29T14:17:11.244Z,18.97
2023-04-29T14:19:38.361Z,17.63
2023-04-29T14:22:05.457Z,19.13
2023-04-29T14:24:32.514Z,16.67
2023-04-29T14:26:59.558Z,16.90
2023-04-29T14:29:27.957Z,17.90
2023-04-29T14:31:55.053Z,17.57
2023-04-29T14:34:22.201Z,17.33
2023-04-29T14:36:49.273Z,19.63
2023-04-29T14:39:16.328Z,18.80
2023-04-29T14:41:43.347Z,18.60
2023-04-29T14:44:10.392Z,19.93
2023-04-29T14:46:38.985Z,19.80
2023-04-29T14:49:06.174Z,18.60
2023-04-29T14:51:33.188Z,16.53
2023-04-29T14:54:00.287Z,17.10
2023-04-29T14:56:27.390Z,15.60
2023-04-29T14:58:54.467Z,16.57
2023-04-29T15:01:21.599Z,17.73
2023-04-29T15:03:50.105Z,16.90
2023-04-29T15:06:17.250Z,16.67
2023-04-29T15:08:44.297Z,16.10
2023-04-29T15:11:11.385Z,15.57
2023-04-29T15:13:38.487Z,14.27
2023-04-29T15:16:06.123Z,16.40
2023-04-29T15:18:33.252Z,14.93
2023-04-29T15:21:01.686Z,15.47
2023-04-29T15:23:28.896Z,15.17
2023-04-29T15:25:56.769Z,18.40
2023-04-29T15:28:23.847Z,17.93
2023-04-29T15:30:50.949Z,18.13
2023-04-29T15:33:18.127Z,17.67
2023-04-29T15:35:45.295Z,16.90
2023-04-29T15:38:13.679Z,16.00
2023-04-29T15:40:40.781Z,16.00
2023-04-29T15:43:07.884Z,15.80
2023-04-29T15:45:34.962Z,15.73
2023-04-29T15:48:02.179Z,15.77
2023-04-29T15:50:29.373Z,14.77
2023-04-29T15:52:56.452Z,15.00
2023-04-29T15:55:24.928Z,13.63
2023-04-29T15:57:51.990Z,13.10
2023-04-29T16:00:19.073Z,12.30
2023-04-29T16:02:46.243Z,12.60
2023-04-29T16:05:13.323Z,14.27
2023-04-29T16:07:40.412Z,14.00
2023-04-29T16:10:07.888Z,13.63
2023-04-29T16:12:36.418Z,12.30
2023-04-29T16:15:03.641Z,12.73
2023-04-29T16:17:32.188Z,12.10
2023-04-29T16:19:59.358Z,11.90
2023-04-29T16:22:26.487Z,12.20
2023-04-29T16:24:53.576Z,12.23
2023-04-29T16:27:20.627Z,11.97
2023-04-29T16:29:49.066Z,11.87
2023-04-29T16:32:16.187Z,11.93
2023-04-29T16:34:43.267Z,11.37
2023-04-29T16:37:10.387Z,11.33
2023-04-29T16:39:37.439Z,11.13
2023-04-29T16:42:04.538Z,11.00
2023-04-29T16:44:31.662Z,10.90
2023-04-29T16:47:00.168Z,12.10
2023-04-29T16:49:27.258Z,10.40
2023-04-29T16:51:54.336Z,11.47
2023-04-29T16:54:21.403Z,11.00
2023-04-29T16:56:50.742Z,11.13
2023-04-29T16:59:18.241Z,10.67
2023-04-29T17:01:45.556Z,10.77
2023-04-29T17:04:14.069Z,10.83
2023-04-29T17:06:41.252Z,11.57
2023-04-29T17:09:08.356Z,12.70
2023-04-29T17:11:36.444Z,11.60
2023-04-29T17:14:03.548Z,12.57
2023-04-29T17:16:30.700Z,11.33
2023-04-29T17:18:57.899Z,12.37
2023-04-29T17:21:26.277Z,12.10
2023-04-29T17:23:53.478Z,11.20
2023-04-29T17:26:20.651Z,12.73
2023-04-29T17:28:47.750Z,13.47
2023-04-29T17:31:14.845Z,13.43
2023-04-29T17:33:42.003Z,12.83
2023-04-29T17:36:09.035Z,13.67
2023-04-29T17:38:37.476Z,12.63
2023-04-29T17:41:04.566Z,13.50
2023-04-29T17:43:31.668Z,12.03
2023-04-29T17:45:58.811Z,11.97
2023-04-29T17:48:25.878Z,12.43
2023-04-29T17:50:52.944Z,11.40
2023-04-29T17:53:20.029Z,11.27
2023-04-29T17:55:48.419Z,11.63
2023-04-29T17:58:15.475Z,11.67
2023-04-29T18:00:42.569Z,11.20
2023-04-29T18:03:09.661Z,10.40
2023-04-29T18:05:36.770Z,9.87
2023-04-29T18:08:03.899Z,11.97
2023-04-29T18:10:31.059Z,10.70
2023-04-29T18:12:59.442Z,11.17
2023-04-29T18:15:26.503Z,12.00
2023-04-29T18:17:53.583Z,11.03
2023-04-29T18:20:20.772Z,12.17
2023-04-29T18:22:47.802Z,11.10
2023-04-29T18:25:14.853Z,11.50
2023-04-29T18:27:41.918Z,10.27
2023-04-29T18:30:11.079Z,10.07
2023-04-29T18:32:38.533Z,11.10
2023-04-29T18:35:06.087Z,9.17
2023-04-29T18:37:33.198Z,10.33
2023-04-29T18:40:00.234Z,9.90
2023-04-29T18:42:27.248Z,9.83
2023-04-29T18:44:54.301Z,9.90
2023-04-29T18:47:22.701Z,9.07
2023-04-29T18:49:49.784Z,8.87
2023-04-29T18:52:16.908Z,9.20
2023-04-29T18:54:43.981Z,10.43
2023-04-29T18:57:11.076Z,9.93
2023-04-29T18:59:38.177Z,9.20
2023-04-29T19:02:05.383Z,8.70
2023-04-29T19:04:34.484Z,9.50
2023-04-29T19:07:01.676Z,8.83
2023-04-29T19:09:29.197Z,9.73
2023-04-29T19:11:56.256Z,8.67
2023-04-29T19:14:23.280Z,9.87
2023-04-29T19:16:50.346Z,9.20
2023-04-29T19:19:17.395Z,8.93
2023-04-29T19:21:45.824Z,9.43
2023-04-29T19:24:12.930Z,9.30
2023-04-29T19:26:40.366Z,9.80
2023-04-29T19:29:07.507Z,9.67
2023-04-29T19:31:34.671Z,9.40
2023-04-29T19:34:01.826Z,9.10
2023-04-29T19:36:28.896Z,10.00
2023-04-29T19:38:57.480Z,9.40
2023-04-29T19:41:24.623Z,17.60
2023-04-29T19:43:51.704Z,20.40
2023-04-29T19:46:18.802Z,17.50
2023-04-29T19:48:45.873Z,10.63
2023-04-29T19:51:12.978Z,11.00
2023-04-29T19:53:40.070Z,10.73
2023-04-29T19:56:08.468Z,9.87
2023-04-29T19:58:35.563Z,10.00
2023-04-29T20:01:02.702Z,10.40
2023-04-29T20:03:29.890Z,10.90
2023-04-29T20:05:56.989Z,10.13
2023-04-29T20:08:24.134Z,10.90
2023-04-29T20:10:51.185Z,10.83
2023-04-29T20:13:19.595Z,10.70
2023-04-29T20:15:46.688Z,11.07
2023-04-29T20:18:13.765Z,10.87
2023-04-29T20:20:40.837Z,11.00
2023-04-29T20:23:07.930Z,11.20
2023-04-29T20:25:35.005Z,11.33
2023-04-29T20:28:02.119Z,11.70
2023-04-29T20:30:30.589Z,11.87
2023-04-29T20:32:57.713Z,12.37
2023-04-29T20:35:24.910Z,13.13
2023-04-29T20:37:51.967Z,12.50
2023-04-29T20:40:19.106Z,11.80
2023-04-29T20:42:46.204Z,12.30
2023-04-29T20:45:13.345Z,12.60
2023-04-29T20:47:41.987Z,12.10
2023-04-29T20:50:09.601Z,11.50
2023-04-29T20:52:36.839Z,12.17
2023-04-29T20:55:04.415Z,11.23
2023-04-29T20:57:31.478Z,11.17
2023-04-29T20:59:58.530Z,12.57
2023-04-29T21:02:25.637Z,12.53
2023-04-29T21:04:54.093Z,13.77
2023-04-29T21:07:21.243Z,13.00
2023-04-29T21:09:48.311Z,12.10
2023-04-29T21:12:15.413Z,13.63
2023-04-29T21:14:42.938Z,11.60
2023-04-29T21:17:10.234Z,12.10
2023-04-29T21:19:37.367Z,13.60
2023-04-29T21:22:05.736Z,12.70
2023-04-29T21:24:32.858Z,12.43
2023-04-29T21:26:59.904Z,12.70
2023-04-29T21:29:26.982Z,11.90
2023-04-29T21:31:54.306Z,14.30
2023-04-29T21:34:21.551Z,12.10
2023-04-29T21:36:48.598Z,12.37
2023-04-29T21:39:17.047Z,13.17
2023-04-29T21:41:44.215Z,13.70
2023-04-29T21:44:12.375Z,12.57
2023-04-29T21:46:39.885Z,13.70
2023-04-29T21:49:06.979Z,12.50
2023-04-29T21:51:34.571Z,12.57
2023-04-29T21:54:01.731Z,13.83
2023-04-29T21:56:30.123Z,11.77
2023-04-29T21:58:57.244Z,12.33
2023-04-29T22:01:24.466Z,12.53
2023-04-29T22:03:51.661Z,11.43
2023-04-29T22:06:18.773Z,12.73
2023-04-29T22:08:45.889Z,13.37
2023-04-29T22:11:12.963Z,13.50
2023-04-29T22:13:41.413Z,11.80
2023-04-29T22:16:08.635Z,11.20
2023-04-29T22:18:35.765Z,11.87
2023-04-29T22:21:02.839Z,10.97
2023-04-29T22:23:29.894Z,10.00
2023-04-29T22:25:57.006Z,11.33
2023-04-29T22:28:24.146Z,11.37
2023-04-29T22:30:52.624Z,10.00
2023-04-29T22:33:19.752Z,10.50
2023-04-29T22:35:46.851Z,11.80
2023-04-29T22:38:14.016Z,11.30
2023-04-29T22:40:41.164Z,10.13
2023-04-29T22:43:08.285Z,12.93
2023-04-29T22:45:35.384Z,9.77
2023-04-29T22:48:03.904Z,10.33
2023-04-29T22:50:31.049Z,9.83
2023-04-29T22:52:58.078Z,9.00
2023-04-29T22:55:25.146Z,9.93
2023-04-29T22:57:52.282Z,9.10
2023-04-29T23:00:19.437Z,9.50
2023-04-29T23:02:46.522Z,10.53
2023-04-29T23:05:15.044Z,8.90
2023-04-29T23:07:42.098Z,9.37
2023-04-29T23:10:09.537Z,10.07
2023-04-29T23:12:36.595Z,9.17
2023-04-29T23:15:03.814Z,9.37
2023-04-29T23:17:30.954Z,8.97
2023-04-29T23:19:58.010Z,8.93
2023-04-29T23:22:26.407Z,9.03
2023-04-29T23:24:53.455Z,9.50
2023-04-29T23:27:20.520Z,8.80
2023-04-29T23:29:47.607Z,8.80
2023-04-29T23:32:14.688Z,9.43
2023-04-29T23:34:41.721Z,9.47
2023-04-29T23:37:08.767Z,9.20
2023-04-29T23:39:37.127Z,9.73
2023-04-29T23:42:04.272Z,9.10
2023-04-29T23:44:31.368Z,9.27
2023-04-29T23:46:58.465Z,13.10
2023-04-29T23:49:25.590Z,17.30
2023-04-29T23:51:52.698Z,11.53
2023-04-29T23:54:19.732Z,13.07
2023-04-29T23:56:48.164Z,14.27
2023-04-29T23:59:15.260Z,13.50
